sensor_id;sensor_type;location;lat;lon;timestamp;P1;durP1;ratioP1;P2;durP2;ratioP2
19846;SDS011;10084;50.518;8.588;2023-04-01T00:01:57;0.17;;;0.13;;
19846;SDS011;10084;50.518;8.588;2023-04-01T00:04:23;6.10;;;0.40;;
19846;SDS011;10084;50.518;8.588;2023-04-01T00:06:49;2.40;;;0.50;;
19846;SDS011;10084;50.518;8.588;2023-04-01T00:09:16;1.13;;;0.47;;
19846;SDS011;10084;50.518;8.588;2023-04-01T00:11:43;2.23;;;0.50;;
19846;SDS011;10084;50.518;8.588;2023-04-01T00:14:10;2.83;;;0.40;;
19846;SDS011;10084;50.518;8.588;2023-04-01T00:16:36;1.00;;;0.30;;
19846;SDS011;10084;50.518;8.588;2023-04-01T00:19:03;0.73;;;0.20;;
19846;SDS011;10084;50.518;8.588;2023-04-01T00:21:29;0.80;;;0.20;;
19846;SDS011;10084;50.518;8.588;2023-04-01T00:23:55;0.40;;;0.23;;
19846;SDS011;10084;50.518;8.588;2023-04-01T00:26:21;1.77;;;0.33;;
19846;SDS011;10084;50.518;8.588;2023-04-01T00:28:47;3.20;;;0.43;;
19846;SDS011;10084;50.518;8.588;2023-04-01T00:31:14;1.17;;;0.30;;
19846;SDS011;10084;50.518;8.588;2023-04-01T00:33:40;9.03;;;0.40;;
19846;SDS011;10084;50.518;8.588;2023-04-01T00:38:34;1.83;;;0.20;;
19846;SDS011;10084;50.518;8.588;2023-04-01T00:41:01;1.67;;;0.30;;
19846;SDS011;10084;50.518;8.588;2023-04-01T00:43:27;2.13;;;0.30;;
19846;SDS011;10084;50.518;8.588;2023-04-01T00:45:53;0.50;;;0.23;;
19846;SDS011;10084;50.518;8.588;2023-04-01T00:48:21;1.07;;;0.17;;
19846;SDS011;10084;50.518;8.588;2023-04-01T00:50:49;1.80;;;0.30;;
19846;SDS011;10084;50.518;8.588;2023-04-01T00:53:17;1.87;;;0.40;;
19846;SDS011;10084;50.518;8.588;2023-04-01T00:55:47;0.23;;;0.20;;
19846;SDS011;10084;50.518;8.588;2023-04-01T00:58:15;1.53;;;0.10;;
19846;SDS011;10084;50.518;8.588;2023-04-01T01:00:42;0.63;;;0.23;;
19846;SDS011;10084;50.518;8.588;2023-04-01T01:03:08;1.10;;;0.30;;
19846;SDS011;10084;50.518;8.588;2023-04-01T01:05:57;1.67;;;0.30;;
19846;SDS011;10084;50.518;8.588;2023-04-01T01:08:35;1.50;;;0.20;;
19846;SDS011;10084;50.518;8.588;2023-04-01T01:11:05;0.40;;;0.27;;
19846;SDS011;10084;50.518;8.588;2023-04-01T01:13:36;1.63;;;0.20;;
19846;SDS011;10084;50.518;8.588;2023-04-01T01:16:09;4.27;;;0.30;;
19846;SDS011;10084;50.518;8.588;2023-04-01T01:21:21;0.57;;;0.20;;
19846;SDS011;10084;50.518;8.588;2023-04-01T01:24:04;4.13;;;0.27;;
19846;SDS011;10084;50.518;8.588;2023-04-01T01:36:42;0.10;;;0.10;;
19846;SDS011;10084;50.518;8.588;2023-04-01T01:39:10;3.80;;;0.30;;
19846;SDS011;10084;50.518;8.588;2023-04-01T01:41:38;0.10;;;0.10;;
19846;SDS011;10084;50.518;8.588;2023-04-01T01:44:06;2.40;;;0.27;;
19846;SDS011;10084;50.518;8.588;2023-04-01T01:46:33;0.57;;;0.20;;
19846;SDS011;10084;50.518;8.588;2023-04-01T01:49:00;2.20;;;0.30;;
19846;SDS011;10084;50.518;8.588;2023-04-01T01:51:26;0.77;;;0.13;;
19846;SDS011;10084;50.518;8.588;2023-04-01T01:53:53;0.73;;;0.10;;
19846;SDS011;10084;50.518;8.588;2023-04-01T01:56:22;0.37;;;0.10;;
19846;SDS011;10084;50.518;8.588;2023-04-01T01:58:51;0.20;;;0.10;;
19846;SDS011;10084;50.518;8.588;2023-04-01T02:01:24;2.13;;;0.20;;
19846;SDS011;10084;50.518;8.588;2023-04-01T02:03:51;0.47;;;0.10;;
19846;SDS011;10084;50.518;8.588;2023-04-01T02:06:19;0.40;;;0.20;;
19846;SDS011;10084;50.518;8.588;2023-04-01T02:08:47;0.40;;;0.20;;
19846;SDS011;10084;50.518;8.588;2023-04-01T02:11:17;0.30;;;0.10;;
19846;SDS011;10084;50.518;8.588;2023-04-01T02:16:32;0.60;;;0.17;;
19846;SDS011;10084;50.518;8.588;2023-04-01T02:19:00;2.00;;;0.10;;
19846;SDS011;10084;50.518;8.588;2023-04-01T02:21:27;0.20;;;0.10;;
19846;SDS011;10084;50.518;8.588;2023-04-01T02:23:55;1.37;;;0.40;;
19846;SDS011;10084;50.518;8.588;2023-04-01T02:26:22;0.10;;;0.07;;
19846;SDS011;10084;50.518;8.588;2023-04-01T02:28:50;0.00;;;0.00;;
19846;SDS011;10084;50.518;8.588;2023-04-01T02:31:16;0.50;;;0.20;;
19846;SDS011;10084;50.518;8.588;2023-04-01T02:33:43;0.63;;;0.10;;
19846;SDS011;10084;50.518;8.588;2023-04-01T02:36:12;0.20;;;0.03;;
19846;SDS011;10084;50.518;8.588;2023-04-01T02:38:38;0.97;;;0.20;;
19846;SDS011;10084;50.518;8.588;2023-04-01T02:41:05;0.27;;;0.10;;
19846;SDS011;10084;50.518;8.588;2023-04-01T02:43:31;1.73;;;0.10;;
19846;SDS011;10084;50.518;8.588;2023-04-01T02:45:58;1.47;;;0.20;;
19846;SDS011;10084;50.518;8.588;2023-04-01T02:48:24;3.20;;;0.30;;
19846;SDS011;10084;50.518;8.588;2023-04-01T02:50:50;1.17;;;0.10;;
19846;SDS011;10084;50.518;8.588;2023-04-01T02:53:16;0.47;;;0.20;;
19846;SDS011;10084;50.518;8.588;2023-04-01T02:55:43;0.20;;;0.20;;
19846;SDS011;10084;50.518;8.588;2023-04-01T02:58:10;2.63;;;0.20;;
19846;SDS011;10084;50.518;8.588;2023-04-01T03:00:36;0.47;;;0.00;;
19846;SDS011;10084;50.518;8.588;2023-04-01T03:03:02;0.07;;;0.00;;
19846;SDS011;10084;50.518;8.588;2023-04-01T03:05:29;0.70;;;0.10;;
19846;SDS011;10084;50.518;8.588;2023-04-01T03:07:55;2.57;;;0.10;;
19846;SDS011;10084;50.518;8.588;2023-04-01T03:10:21;0.17;;;0.10;;
19846;SDS011;10084;50.518;8.588;2023-04-01T03:12:47;0.17;;;0.10;;
19846;SDS011;10084;50.518;8.588;2023-04-01T03:15:14;0.30;;;0.10;;
19846;SDS011;10084;50.518;8.588;2023-04-01T03:17:40;0.90;;;0.20;;
19846;SDS011;10084;50.518;8.588;2023-04-01T03:20:07;0.87;;;0.10;;
19846;SDS011;10084;50.518;8.588;2023-04-01T03:22:34;0.00;;;0.00;;
19846;SDS011;10084;50.518;8.588;2023-04-01T03:25:01;0.20;;;0.10;;
19846;SDS011;10084;50.518;8.588;2023-04-01T03:27:28;2.40;;;0.20;;
19846;SDS011;10084;50.518;8.588;2023-04-01T03:29:54;0.60;;;0.10;;
19846;SDS011;10084;50.518;8.588;2023-04-01T03:32:20;0.83;;;0.13;;
19846;SDS011;10084;50.518;8.588;2023-04-01T03:34:47;0.80;;;0.17;;
19846;SDS011;10084;50.518;8.588;2023-04-01T03:37:13;4.60;;;0.20;;
19846;SDS011;10084;50.518;8.588;2023-04-01T03:39:39;2.43;;;0.20;;
19846;SDS011;10084;50.518;8.588;2023-04-01T03:42:05;0.33;;;0.13;;
19846;SDS011;10084;50.518;8.588;2023-04-01T03:44:32;1.40;;;0.10;;
19846;SDS011;10084;50.518;8.588;2023-04-01T03:46:59;0.73;;;0.20;;
19846;SDS011;10084;50.518;8.588;2023-04-01T03:49:26;0.10;;;0.00;;
19846;SDS011;10084;50.518;8.588;2023-04-01T03:51:52;1.50;;;0.10;;
19846;SDS011;10084;50.518;8.588;2023-04-01T03:54:18;1.50;;;0.03;;
19846;SDS011;10084;50.518;8.588;2023-04-01T03:56:45;0.50;;;0.10;;
19846;SDS011;10084;50.518;8.588;2023-04-01T03:59:12;0.13;;;0.00;;
19846;SDS011;10084;50.518;8.588;2023-04-01T04:01:38;0.20;;;0.10;;
19846;SDS011;10084;50.518;8.588;2023-04-01T04:04:05;0.33;;;0.10;;
19846;SDS011;10084;50.518;8.588;2023-04-01T04:06:32;0.60;;;0.10;;
19846;SDS011;10084;50.518;8.588;2023-04-01T04:08:58;0.20;;;0.10;;
19846;SDS011;10084;50.518;8.588;2023-04-01T04:11:26;0.27;;;0.10;;
19846;SDS011;10084;50.518;8.588;2023-04-01T04:13:52;0.20;;;0.00;;
19846;SDS011;10084;50.518;8.588;2023-04-01T04:16:19;0.70;;;0.20;;
19846;SDS011;10084;50.518;8.588;2023-04-01T04:18:51;0.20;;;0.07;;
19846;SDS011;10084;50.518;8.588;2023-04-01T04:21:18;0.57;;;0.10;;
19846;SDS011;10084;50.518;8.588;2023-04-01T04:23:45;0.10;;;0.00;;
19846;SDS011;10084;50.518;8.588;2023-04-01T04:26:14;0.13;;;0.13;;
19846;SDS011;10084;50.518;8.588;2023-04-01T04:28:41;0.10;;;0.10;;
19846;SDS011;10084;50.518;8.588;2023-04-01T04:31:07;0.37;;;0.10;;
19846;SDS011;10084;50.518;8.588;2023-04-01T04:33:34;0.53;;;0.10;;
19846;SDS011;10084;50.518;8.588;2023-04-01T04:36:02;0.73;;;0.20;;
19846;SDS011;10084;50.518;8.588;2023-04-01T04:38:28;0.37;;;0.10;;
19846;SDS011;10084;50.518;8.588;2023-04-01T04:40:54;0.30;;;0.10;;
19846;SDS011;10084;50.518;8.588;2023-04-01T04:43:21;0.30;;;0.10;;
19846;SDS011;10084;50.518;8.588;2023-04-01T04:45:47;0.30;;;0.10;;
19846;SDS011;10084;50.518;8.588;2023-04-01T04:48:14;1.17;;;0.13;;
19846;SDS011;10084;50.518;8.588;2023-04-01T04:50:46;0.40;;;0.20;;
19846;SDS011;10084;50.518;8.588;2023-04-01T04:53:13;0.43;;;0.10;;
19846;SDS011;10084;50.518;8.588;2023-04-01T04:55:49;0.63;;;0.00;;
19846;SDS011;10084;50.518;8.588;2023-04-01T04:58:35;0.10;;;0.00;;
19846;SDS011;10084;50.518;8.588;2023-04-01T05:01:08;2.43;;;0.10;;
19846;SDS011;10084;50.518;8.588;2023-04-01T05:03:36;1.00;;;0.10;;
19846;SDS011;10084;50.518;8.588;2023-04-01T05:06:04;0.67;;;0.20;;
19846;SDS011;10084;50.518;8.588;2023-04-01T05:08:30;0.20;;;0.10;;
19846;SDS011;10084;50.518;8.588;2023-04-01T05:10:58;1.80;;;0.20;;
19846;SDS011;10084;50.518;8.588;2023-04-01T05:13:24;1.20;;;0.10;;
19846;SDS011;10084;50.518;8.588;2023-04-01T05:15:50;0.10;;;0.00;;
19846;SDS011;10084;50.518;8.588;2023-04-01T05:18:17;1.37;;;0.20;;
19846;SDS011;10084;50.518;8.588;2023-04-01T05:20:47;0.10;;;0.00;;
19846;SDS011;10084;50.518;8.588;2023-04-01T05:23:13;0.30;;;0.00;;
19846;SDS011;10084;50.518;8.588;2023-04-01T05:25:40;3.07;;;0.10;;
19846;SDS011;10084;50.518;8.588;2023-04-01T05:28:06;1.20;;;0.10;;
19846;SDS011;10084;50.518;8.588;2023-04-01T05:30:33;0.10;;;0.10;;
19846;SDS011;10084;50.518;8.588;2023-04-01T05:33:02;0.10;;;0.00;;
19846;SDS011;10084;50.518;8.588;2023-04-01T05:35:28;0.50;;;0.20;;
19846;SDS011;10084;50.518;8.588;2023-04-01T05:37:55;0.30;;;0.00;;
19846;SDS011;10084;50.518;8.588;2023-04-01T05:40:21;0.80;;;0.20;;
19846;SDS011;10084;50.518;8.588;2023-04-01T05:42:47;0.40;;;0.10;;
19846;SDS011;10084;50.518;8.588;2023-04-01T05:45:15;0.13;;;0.00;;
19846;SDS011;10084;50.518;8.588;2023-04-01T05:48:00;0.07;;;0.07;;
19846;SDS011;10084;50.518;8.588;2023-04-01T05:50:29;0.03;;;0.00;;
19846;SDS011;10084;50.518;8.588;2023-04-01T05:52:55;0.60;;;0.10;;
19846;SDS011;10084;50.518;8.588;2023-04-01T05:55:21;0.40;;;0.17;;
19846;SDS011;10084;50.518;8.588;2023-04-01T05:57:49;1.07;;;0.10;;
19846;SDS011;10084;50.518;8.588;2023-04-01T06:00:16;0.97;;;0.10;;
19846;SDS011;10084;50.518;8.588;2023-04-01T06:02:42;1.53;;;0.07;;
19846;SDS011;10084;50.518;8.588;2023-04-01T06:05:13;0.37;;;0.00;;
19846;SDS011;10084;50.518;8.588;2023-04-01T06:07:40;0.63;;;0.17;;
19846;SDS011;10084;50.518;8.588;2023-04-01T06:10:32;0.33;;;0.10;;
19846;SDS011;10084;50.518;8.588;2023-04-01T06:15:57;0.10;;;0.07;;
19846;SDS011;10084;50.518;8.588;2023-04-01T06:18:41;1.53;;;0.10;;
19846;SDS011;10084;50.518;8.588;2023-04-01T06:21:27;0.20;;;0.10;;
19846;SDS011;10084;50.518;8.588;2023-04-01T06:24:17;0.23;;;0.10;;
19846;SDS011;10084;50.518;8.588;2023-04-01T06:26:55;1.30;;;0.10;;
19846;SDS011;10084;50.518;8.588;2023-04-01T06:48:23;0.13;;;0.00;;
19846;SDS011;10084;50.518;8.588;2023-04-01T06:51:26;1.33;;;0.07;;
19846;SDS011;10084;50.518;8.588;2023-04-01T06:54:21;0.13;;;0.03;;
19846;SDS011;10084;50.518;8.588;2023-04-01T06:57:20;0.43;;;0.00;;
19846;SDS011;10084;50.518;8.588;2023-04-01T06:59:47;1.03;;;0.07;;
19846;SDS011;10084;50.518;8.588;2023-04-01T07:04:59;0.67;;;0.00;;
19846;SDS011;10084;50.518;8.588;2023-04-01T07:09:58;0.00;;;0.00;;
19846;SDS011;10084;50.518;8.588;2023-04-01T07:15:16;0.20;;;0.20;;
19846;SDS011;10084;50.518;8.588;2023-04-01T07:17:44;0.03;;;0.00;;
19846;SDS011;10084;50.518;8.588;2023-04-01T07:20:20;0.30;;;0.10;;
19846;SDS011;10084;50.518;8.588;2023-04-01T07:22:49;0.00;;;0.00;;
19846;SDS011;10084;50.518;8.588;2023-04-01T07:25:30;0.00;;;0.00;;
19846;SDS011;10084;50.518;8.588;2023-04-01T07:28:16;0.10;;;0.00;;
19846;SDS011;10084;50.518;8.588;2023-04-01T07:30:50;0.23;;;0.00;;
19846;SDS011;10084;50.518;8.588;2023-04-01T07:33:27;0.00;;;0.00;;
19846;SDS011;10084;50.518;8.588;2023-04-01T07:35:56;0.27;;;0.10;;
19846;SDS011;10084;50.518;8.588;2023-04-01T07:44:03;2.67;;;0.20;;
19846;SDS011;10084;50.518;8.588;2023-04-01T07:46:41;0.27;;;0.10;;
19846;SDS011;10084;50.518;8.588;2023-04-01T07:49:27;0.20;;;0.00;;
19846;SDS011;10084;50.518;8.588;2023-04-01T07:52:00;0.30;;;0.10;;
19846;SDS011;10084;50.518;8.588;2023-04-01T07:57:09;0.00;;;0.00;;
19846;SDS011;10084;50.518;8.588;2023-04-01T08:10:50;0.10;;;0.10;;
19846;SDS011;10084;50.518;8.588;2023-04-01T08:13:48;0.20;;;0.10;;
19846;SDS011;10084;50.518;8.588;2023-04-01T08:19:46;0.10;;;0.03;;
19846;SDS011;10084;50.518;8.588;2023-04-01T08:22:23;0.20;;;0.20;;
19846;SDS011;10084;50.518;8.588;2023-04-01T08:24:52;0.27;;;0.10;;
19846;SDS011;10084;50.518;8.588;2023-04-01T08:27:35;0.17;;;0.10;;
19846;SDS011;10084;50.518;8.588;2023-04-01T08:30:06;0.83;;;0.00;;
19846;SDS011;10084;50.518;8.588;2023-04-01T08:32:42;0.23;;;0.20;;
19846;SDS011;10084;50.518;8.588;2023-04-01T08:35:34;0.00;;;0.00;;
19846;SDS011;10084;50.518;8.588;2023-04-01T08:38:12;0.97;;;0.20;;
19846;SDS011;10084;50.518;8.588;2023-04-01T08:40:56;4.53;;;0.10;;
19846;SDS011;10084;50.518;8.588;2023-04-01T08:54:44;0.23;;;0.00;;
19846;SDS011;10084;50.518;8.588;2023-04-01T09:03:36;0.03;;;0.00;;
19846;SDS011;10084;50.518;8.588;2023-04-01T09:06:33;0.00;;;0.00;;
19846;SDS011;10084;50.518;8.588;2023-04-01T09:09:21;0.00;;;0.00;;
19846;SDS011;10084;50.518;8.588;2023-04-01T09:15:29;0.37;;;0.10;;
19846;SDS011;10084;50.518;8.588;2023-04-01T09:27:26;0.00;;;0.00;;
19846;SDS011;10084;50.518;8.588;2023-04-01T09:40:55;0.10;;;0.10;;
19846;SDS011;10084;50.518;8.588;2023-04-01T09:49:40;0.00;;;0.00;;
19846;SDS011;10084;50.518;8.588;2023-04-01T09:55:00;0.00;;;0.00;;
19846;SDS011;10084;50.518;8.588;2023-04-01T10:04:06;1.60;;;1.50;;
19846;SDS011;10084;50.518;8.588;2023-04-01T10:09:57;2.03;;;1.83;;
19846;SDS011;10084;50.518;8.588;2023-04-01T10:12:50;1.97;;;1.43;;
19846;SDS011;10084;50.518;8.588;2023-04-01T10:18:28;4.20;;;2.80;;
19846;SDS011;10084;50.518;8.588;2023-04-01T10:32:08;2.30;;;1.63;;
19846;SDS011;10084;50.518;8.588;2023-04-01T10:38:09;0.57;;;0.57;;
19846;SDS011;10084;50.518;8.588;2023-04-01T10:46:20;0.10;;;0.10;;
19846;SDS011;10084;50.518;8.588;2023-04-01T11:27:45;0.10;;;0.03;;
19846;SDS011;10084;50.518;8.588;2023-04-01T11:30:20;0.17;;;0.17;;
19846;SDS011;10084;50.518;8.588;2023-04-01T11:33:02;0.00;;;0.00;;
19846;SDS011;10084;50.518;8.588;2023-04-01T11:38:17;0.07;;;0.00;;
19846;SDS011;10084;50.518;8.588;2023-04-01T11:40:59;0.17;;;0.00;;
19846;SDS011;10084;50.518;8.588;2023-04-01T11:58:43;0.10;;;0.10;;
19846;SDS011;10084;50.518;8.588;2023-04-01T12:01:22;0.10;;;0.10;;
19846;SDS011;10084;50.518;8.588;2023-04-01T12:04:05;0.10;;;0.10;;
19846;SDS011;10084;50.518;8.588;2023-04-01T12:09:35;0.20;;;0.20;;
19846;SDS011;10084;50.518;8.588;2023-04-01T12:12:12;0.30;;;0.20;;
19846;SDS011;10084;50.518;8.588;2023-04-01T12:15:20;0.10;;;0.10;;
19846;SDS011;10084;50.518;8.588;2023-04-01T12:17:41;0.47;;;0.23;;
19846;SDS011;10084;50.518;8.588;2023-04-01T12:26:23;0.27;;;0.17;;
19846;SDS011;10084;50.518;8.588;2023-04-01T12:31:40;0.10;;;0.10;;
19846;SDS011;10084;50.518;8.588;2023-04-01T12:34:39;0.30;;;0.10;;
19846;SDS011;10084;50.518;8.588;2023-04-01T12:40:31;0.07;;;0.07;;
19846;SDS011;10084;50.518;8.588;2023-04-01T12:45:30;0.10;;;0.10;;
19846;SDS011;10084;50.518;8.588;2023-04-01T12:53:50;0.10;;;0.10;;
19846;SDS011;10084;50.518;8.588;2023-04-01T12:59:38;0.20;;;0.20;;
19846;SDS011;10084;50.518;8.588;2023-04-01T13:02:38;0.10;;;0.10;;
19846;SDS011;10084;50.518;8.588;2023-04-01T13:13:52;0.10;;;0.10;;
19846;SDS011;10084;50.518;8.588;2023-04-01T13:16:39;1.47;;;0.10;;
19846;SDS011;10084;50.518;8.588;2023-04-01T13:35:18;0.47;;;0.30;;
19846;SDS011;10084;50.518;8.588;2023-04-01T13:38:10;0.30;;;0.30;;
19846;SDS011;10084;50.518;8.588;2023-04-01T13:51:23;0.50;;;0.50;;
19846;SDS011;10084;50.518;8.588;2023-04-01T13:54:04;0.50;;;0.50;;
19846;SDS011;10084;50.518;8.588;2023-04-01T13:57:27;0.30;;;0.30;;
19846;SDS011;10084;50.518;8.588;2023-04-01T14:00:03;0.40;;;0.40;;
19846;SDS011;10084;50.518;8.588;2023-04-01T14:21:14;0.10;;;0.10;;
19846;SDS011;10084;50.518;8.588;2023-04-01T14:24:03;0.10;;;0.10;;
19846;SDS011;10084;50.518;8.588;2023-04-01T14:26:50;0.27;;;0.20;;
19846;SDS011;10084;50.518;8.588;2023-04-01T14:30:26;1.13;;;0.40;;
19846;SDS011;10084;50.518;8.588;2023-04-01T14:32:42;0.30;;;0.30;;
19846;SDS011;10084;50.518;8.588;2023-04-01T14:35:20;0.20;;;0.20;;
19846;SDS011;10084;50.518;8.588;2023-04-01T14:38:06;0.23;;;0.23;;
19846;SDS011;10084;50.518;8.588;2023-04-01T14:40:47;0.20;;;0.20;;
19846;SDS011;10084;50.518;8.588;2023-04-01T14:43:33;0.10;;;0.10;;
19846;SDS011;10084;50.518;8.588;2023-04-01T14:49:00;0.33;;;0.30;;
19846;SDS011;10084;50.518;8.588;2023-04-01T14:51:34;0.13;;;0.13;;
19846;SDS011;10084;50.518;8.588;2023-04-01T14:54:16;0.27;;;0.27;;
19846;SDS011;10084;50.518;8.588;2023-04-01T14:56:50;0.53;;;0.40;;
19846;SDS011;10084;50.518;8.588;2023-04-01T15:01:55;0.30;;;0.30;;
19846;SDS011;10084;50.518;8.588;2023-04-01T15:07:08;0.20;;;0.20;;
19846;SDS011;10084;50.518;8.588;2023-04-01T15:09:52;0.50;;;0.50;;
19846;SDS011;10084;50.518;8.588;2023-04-01T15:20:21;0.30;;;0.30;;
19846;SDS011;10084;50.518;8.588;2023-04-01T15:23:01;0.20;;;0.10;;
19846;SDS011;10084;50.518;8.588;2023-04-01T15:25:44;0.30;;;0.17;;
19846;SDS011;10084;50.518;8.588;2023-04-01T15:28:21;0.30;;;0.30;;
19846;SDS011;10084;50.518;8.588;2023-04-01T15:33:20;0.10;;;0.10;;
19846;SDS011;10084;50.518;8.588;2023-04-01T15:35:57;0.27;;;0.27;;
19846;SDS011;10084;50.518;8.588;2023-04-01T15:38:30;0.13;;;0.13;;
19846;SDS011;10084;50.518;8.588;2023-04-01T15:41:11;0.07;;;0.07;;
19846;SDS011;10084;50.518;8.588;2023-04-01T15:43:44;0.13;;;0.10;;
19846;SDS011;10084;50.518;8.588;2023-04-01T15:48:55;0.20;;;0.20;;
19846;SDS011;10084;50.518;8.588;2023-04-01T15:51:36;0.10;;;0.10;;
19846;SDS011;10084;50.518;8.588;2023-04-01T16:02:41;0.03;;;0.00;;
19846;SDS011;10084;50.518;8.588;2023-04-01T16:05:22;0.00;;;0.00;;
19846;SDS011;10084;50.518;8.588;2023-04-01T16:13:24;0.10;;;0.00;;
19846;SDS011;10084;50.518;8.588;2023-04-01T16:21:12;0.20;;;0.10;;
19846;SDS011;10084;50.518;8.588;2023-04-01T16:23:55;0.63;;;0.10;;
19846;SDS011;10084;50.518;8.588;2023-04-01T16:28:50;0.00;;;0.00;;
19846;SDS011;10084;50.518;8.588;2023-04-01T16:31:34;0.00;;;0.00;;
19846;SDS011;10084;50.518;8.588;2023-04-01T16:34:04;0.00;;;0.00;;
19846;SDS011;10084;50.518;8.588;2023-04-01T16:36:35;0.10;;;0.00;;
19846;SDS011;10084;50.518;8.588;2023-04-01T16:44:24;1.50;;;1.40;;
19846;SDS011;10084;50.518;8.588;2023-04-01T16:46:53;0.10;;;0.10;;
19846;SDS011;10084;50.518;8.588;2023-04-01T16:50:06;0.03;;;0.03;;
19846;SDS011;10084;50.518;8.588;2023-04-01T16:54:47;0.23;;;0.23;;
19846;SDS011;10084;50.518;8.588;2023-04-01T16:57:26;0.20;;;0.20;;
19846;SDS011;10084;50.518;8.588;2023-04-01T16:59:55;0.30;;;0.30;;
19846;SDS011;10084;50.518;8.588;2023-04-01T17:02:43;0.20;;;0.20;;
19846;SDS011;10084;50.518;8.588;2023-04-01T17:05:11;0.20;;;0.10;;
19846;SDS011;10084;50.518;8.588;2023-04-01T17:07:40;0.20;;;0.20;;
19846;SDS011;10084;50.518;8.588;2023-04-01T17:12:47;0.67;;;0.40;;
19846;SDS011;10084;50.518;8.588;2023-04-01T17:20:31;0.30;;;0.30;;
19846;SDS011;10084;50.518;8.588;2023-04-01T17:25:41;0.30;;;0.30;;
19846;SDS011;10084;50.518;8.588;2023-04-01T17:31:06;0.20;;;0.20;;
19846;SDS011;10084;50.518;8.588;2023-04-01T17:33:55;0.10;;;0.10;;
19846;SDS011;10084;50.518;8.588;2023-04-01T17:36:40;0.83;;;0.20;;
19846;SDS011;10084;50.518;8.588;2023-04-01T17:42:15;1.07;;;0.40;;
19846;SDS011;10084;50.518;8.588;2023-04-01T17:50:42;0.60;;;0.50;;
19846;SDS011;10084;50.518;8.588;2023-04-01T17:55:53;0.27;;;0.23;;
19846;SDS011;10084;50.518;8.588;2023-04-01T17:58:29;0.30;;;0.30;;
19846;SDS011;10084;50.518;8.588;2023-04-01T18:01:16;0.63;;;0.60;;
19846;SDS011;10084;50.518;8.588;2023-04-01T18:03:54;0.90;;;0.27;;
19846;SDS011;10084;50.518;8.588;2023-04-01T18:08:57;0.00;;;0.00;;
19846;SDS011;10084;50.518;8.588;2023-04-01T18:14:58;0.20;;;0.20;;
19846;SDS011;10084;50.518;8.588;2023-04-01T18:16:59;2.20;;;2.07;;
19846;SDS011;10084;50.518;8.588;2023-04-01T18:19:36;3.73;;;3.43;;
19846;SDS011;10084;50.518;8.588;2023-04-01T18:22:10;1.40;;;1.20;;
19846;SDS011;10084;50.518;8.588;2023-04-01T18:30:15;1.57;;;1.47;;
19846;SDS011;10084;50.518;8.588;2023-04-01T18:32:48;1.10;;;0.90;;
19846;SDS011;10084;50.518;8.588;2023-04-01T18:35:24;5.47;;;2.97;;
19846;SDS011;10084;50.518;8.588;2023-04-01T18:40:39;6.07;;;5.57;;
19846;SDS011;10084;50.518;8.588;2023-04-01T18:45:58;5.57;;;5.17;;
19846;SDS011;10084;50.518;8.588;2023-04-01T18:53:28;4.10;;;3.80;;
19846;SDS011;10084;50.518;8.588;2023-04-01T18:55:56;4.43;;;4.03;;
19846;SDS011;10084;50.518;8.588;2023-04-01T18:58:24;7.97;;;7.10;;
19846;SDS011;10084;50.518;8.588;2023-04-01T19:06:13;45.43;;;22.03;;
19846;SDS011;10084;50.518;8.588;2023-04-01T19:08:42;49.23;;;18.10;;
19846;SDS011;10084;50.518;8.588;2023-04-01T19:16:36;20.50;;;15.67;;
19846;SDS011;10084;50.518;8.588;2023-04-01T19:19:15;8.47;;;7.77;;
19846;SDS011;10084;50.518;8.588;2023-04-01T19:27:18;4.13;;;3.83;;
19846;SDS011;10084;50.518;8.588;2023-04-01T19:29:54;2.17;;;2.00;;
19846;SDS011;10084;50.518;8.588;2023-04-01T19:37:39;4.40;;;4.00;;
19846;SDS011;10084;50.518;8.588;2023-04-01T19:40:17;4.03;;;3.40;;
19846;SDS011;10084;50.518;8.588;2023-04-01T19:46:00;1.17;;;1.10;;
19846;SDS011;10084;50.518;8.588;2023-04-01T19:48:32;0.47;;;0.43;;
19846;SDS011;10084;50.518;8.588;2023-04-01T19:51:07;3.30;;;0.87;;
19846;SDS011;10084;50.518;8.588;2023-04-01T19:56:23;0.30;;;0.30;;
19846;SDS011;10084;50.518;8.588;2023-04-01T19:58:59;1.20;;;0.50;;
19846;SDS011;10084;50.518;8.588;2023-04-01T20:04:05;0.20;;;0.20;;
19846;SDS011;10084;50.518;8.588;2023-04-01T20:19:39;0.43;;;0.43;;
19846;SDS011;10084;50.518;8.588;2023-04-01T20:22:23;0.57;;;0.57;;
19846;SDS011;10084;50.518;8.588;2023-04-01T20:24:57;0.90;;;0.90;;
19846;SDS011;10084;50.518;8.588;2023-04-01T20:27:35;4.10;;;1.40;;
19846;SDS011;10084;50.518;8.588;2023-04-01T20:38:48;0.67;;;0.67;;
19846;SDS011;10084;50.518;8.588;2023-04-01T21:00:48;0.53;;;0.53;;
19846;SDS011;10084;50.518;8.588;2023-04-01T21:08:49;0.57;;;0.57;;
19846;SDS011;10084;50.518;8.588;2023-04-01T21:11:38;0.60;;;0.40;;
19846;SDS011;10084;50.518;8.588;2023-04-01T21:17:06;0.27;;;0.27;;
19846;SDS011;10084;50.518;8.588;2023-04-01T21:19:58;0.33;;;0.33;;
19846;SDS011;10084;50.518;8.588;2023-04-01T21:25:22;1.03;;;0.20;;
19846;SDS011;10084;50.518;8.588;2023-04-01T21:31:02;0.10;;;0.10;;
19846;SDS011;10084;50.518;8.588;2023-04-01T21:41:18;0.30;;;0.30;;
19846;SDS011;10084;50.518;8.588;2023-04-01T21:46:28;0.40;;;0.30;;
19846;SDS011;10084;50.518;8.588;2023-04-01T21:54:22;0.30;;;0.30;;
19846;SDS011;10084;50.518;8.588;2023-04-01T21:57:03;0.20;;;0.20;;
19846;SDS011;10084;50.518;8.588;2023-04-01T22:05:02;0.43;;;0.40;;
19846;SDS011;10084;50.518;8.588;2023-04-01T22:07:37;2.23;;;0.50;;
19846;SDS011;10084;50.518;8.588;2023-04-01T22:10:10;0.27;;;0.23;;
19846;SDS011;10084;50.518;8.588;2023-04-01T22:12:49;0.77;;;0.50;;
19846;SDS011;10084;50.518;8.588;2023-04-01T22:15:20;0.40;;;0.40;;
19846;SDS011;10084;50.518;8.588;2023-04-01T22:20:41;0.50;;;0.50;;
19846;SDS011;10084;50.518;8.588;2023-04-01T22:23:17;1.60;;;0.60;;
19846;SDS011;10084;50.518;8.588;2023-04-01T22:31:02;0.90;;;0.50;;
19846;SDS011;10084;50.518;8.588;2023-04-01T22:33:30;0.60;;;0.60;;
19846;SDS011;10084;50.518;8.588;2023-04-01T22:36:18;0.30;;;0.30;;
19846;SDS011;10084;50.518;8.588;2023-04-01T22:38:53;0.90;;;0.50;;
19846;SDS011;10084;50.518;8.588;2023-04-01T22:44:16;0.20;;;0.20;;
19846;SDS011;10084;50.518;8.588;2023-04-01T22:46:53;0.40;;;0.40;;
19846;SDS011;10084;50.518;8.588;2023-04-01T22:52:15;1.93;;;0.53;;
19846;SDS011;10084;50.518;8.588;2023-04-01T22:54:47;0.33;;;0.30;;
19846;SDS011;10084;50.518;8.588;2023-04-01T23:00:11;0.30;;;0.30;;
19846;SDS011;10084;50.518;8.588;2023-04-01T23:02:46;0.60;;;0.50;;
19846;SDS011;10084;50.518;8.588;2023-04-01T23:05:16;0.53;;;0.50;;
19846;SDS011;10084;50.518;8.588;2023-04-01T23:10:39;1.47;;;0.83;;
19846;SDS011;10084;50.518;8.588;2023-04-01T23:13:10;0.63;;;0.60;;
19846;SDS011;10084;50.518;8.588;2023-04-01T23:15:45;1.10;;;1.00;;
19846;SDS011;10084;50.518;8.588;2023-04-01T23:23:30;0.87;;;0.87;;
19846;SDS011;10084;50.518;8.588;2023-04-01T23:26:06;1.27;;;0.60;;
19846;SDS011;10084;50.518;8.588;2023-04-01T23:28:39;0.60;;;0.60;;
19846;SDS011;10084;50.518;8.588;2023-04-01T23:33:53;0.70;;;0.50;;
19846;SDS011;10084;50.518;8.588;2023-04-01T23:36:21;2.20;;;0.60;;
19846;SDS011;10084;50.518;8.588;2023-04-01T23:38:50;0.90;;;0.70;;
19846;SDS011;10084;50.518;8.588;2023-04-01T23:41:26;4.33;;;0.90;;
19846;SDS011;10084;50.518;8.588;2023-04-01T23:44:14;0.80;;;0.80;;
19846;SDS011;10084;50.518;8.588;2023-04-01T23:46:44;0.50;;;0.50;;
19846;SDS011;10084;50.518;8.588;2023-04-01T23:49:17;0.20;;;0.20;;
19846;SDS011;10084;50.518;8.588;2023-04-01T23:51:49;0.30;;;0.30;;
19846;SDS011;10084;50.518;8.588;2023-04-01T23:54:19;0.67;;;0.67;;
19846;SDS011;10084;50.518;8.588;2023-04-01T23:56:52;1.67;;;0.33;;
